Time;durP1;ratioP1;P1;durP2;ratioP2;P2;SDS_P1;SDS_P2;PMS_P1;PMS_P2;Temp;Humidity;BMP_temperature;BMP_pressure;BME280_temperature;BME280_humidity;BME280_pressure;Samples;Min_cycle;Max_cycle;Signal;HPM_P1;HPM_P2
2023/03/01 00:02:09;;;;;;;;;;;;;;;4.07;100.00;100251.31;5050575;28;19928;-73
2023/03/01 00:04:35;;;;;;;;;;;;;;;3.56;100.00;100262.41;5053072;28;19919;-73
2023/03/01 00:07:00;;;;;;;;;;;;;;;2.75;100.00;100289.75;5054236;28;19912;-73
2023/03/01 00:09:26;;;;;;;;;;;;;;;4.12;100.00;100251.38;5055037;28;20343;-73
2023/03/01 00:11:51;;;;;;;;;;;;;;;4.49;100.00;100234.88;5054719;28;19964;-73
2023/03/01 00:14:17;;;;;;;;;;;;;;;4.64;100.00;100223.16;5052476;28;20040;-73
2023/03/01 00:16:43;;;;;;;;;;;;;;;4.61;100.00;100223.97;5053556;28;20031;-73
2023/03/01 00:19:12;;;;;;;;;;;;;;;4.75;100.00;100217.31;5052886;28;20011;-73
2023/03/01 00:21:38;;;;;;;;;;;;;;;4.78;100.00;100206.28;5050603;28;19955;-73
2023/03/01 00:24:03;;;;;;;;;;;;;;;4.06;100.00;100205.41;5053791;28;20321;-73
2023/03/01 00:26:28;;;;;;;;;;;;;;;2.83;100.00;100262.81;5053589;28;20385;-73
2023/03/01 00:28:55;;;;;;;;;;;;;;;3.72;100.00;100264.38;5052273;28;19913;-73
2023/03/01 00:31:24;;;;;;;;;;;;;;;4.45;100.00;100233.13;5050202;28;19928;-73
2023/03/01 00:33:52;;;;;;;;;;;;;;;4.52;100.00;100214.50;5052584;28;19924;-73
2023/03/01 00:36:17;;;;;;;;;;;;;;;4.66;100.00;100195.97;5051224;28;20413;-73
2023/03/01 00:38:43;;;;;;;;;;;;;;;4.23;100.00;100190.34;5054533;28;19921;-73
2023/03/01 00:41:09;;;;;;;;;;;;;;;3.76;100.00;100214.31;5051621;28;19924;-73
2023/03/01 00:43:36;;;;;;;;;;;;;;;3.01;100.00;100251.25;5049421;28;19920;-73
2023/03/01 00:46:05;;;;;;;;;;;;;;;3.48;100.00;100233.41;5054006;28;19920;-73
2023/03/01 00:48:31;;;;;;;;;;;;;;;3.61;100.00;100224.28;5049428;28;20086;-73
2023/03/01 00:50:56;;;;;;;;;;;;;;;4.05;100.00;100217.28;5050040;28;20573;-73
2023/03/01 00:53:21;;;;;;;;;;;;;;;3.91;100.00;100194.16;5055711;28;19924;-73
2023/03/01 00:55:46;;;;;;;;;;;;;;;3.40;100.00;100219.69;5051744;28;19913;-73
2023/03/01 00:58:12;;;;;;;;;;;;;;;3.97;100.00;100198.50;5054833;28;19997;-73
2023/03/01 01:00:37;;;;;;;;;;;;;;;3.95;100.00;100187.44;5053023;28;20260;-73
2023/03/01 01:03:02;;;;;;;;;;;;;;;4.37;100.00;100188.81;5052040;28;20472;-73
2023/03/01 01:05:27;;;;;;;;;;;;;;;4.52;100.00;100177.94;5054477;28;19947;-73
2023/03/01 01:07:52;;;;;;;;;;;;;;;4.32;100.00;100175.16;5053112;28;19924;-74
2023/03/01 01:10:18;;;;;;;;;;;;;;;4.46;100.00;100172.75;5053640;28;20679;-73
2023/03/01 01:12:44;;;;;;;;;;;;;;;3.61;100.00;100188.63;5052646;28;19925;-73
2023/03/01 01:15:12;;;;;;;;;;;;;;;3.96;100.00;100201.88;5049168;28;19925;-73
2023/03/01 01:17:37;;;;;;;;;;;;;;;3.92;100.00;100195.00;5048995;28;20524;-73
2023/03/01 01:20:02;;;;;;;;;;;;;;;3.49;100.00;100209.63;5050975;28;19932;-74
2023/03/01 01:22:28;;;;;;;;;;;;;;;2.97;100.00;100229.13;5050962;28;19921;-73
2023/03/01 01:24:53;;;;;;;;;;;;;;;3.07;100.00;100234.41;5050060;28;19928;-73
2023/03/01 01:27:18;;;;;;;;;;;;;;;3.73;100.00;100220.22;5053937;28;20390;-73
2023/03/01 01:29:43;;;;;;;;;;;;;;;3.99;100.00;100217.19;5054261;28;20623;-73
2023/03/01 01:32:08;;;;;;;;;;;;;;;3.24;100.00;100219.44;5051371;28;20003;-73
2023/03/01 01:34:34;;;;;;;;;;;;;;;3.64;100.00;100207.34;5050929;28;20013;-73
2023/03/01 01:37:02;;;;;;;;;;;;;;;3.79;100.00;100194.00;5056031;28;19995;-73
2023/03/01 01:39:27;;;;;;;;;;;;;;;3.63;100.00;100187.81;5050586;28;19920;-73
2023/03/01 01:41:52;;;;;;;;;;;;;;;2.58;100.00;100200.41;5056374;28;20000;-73
2023/03/01 01:44:19;;;;;;;;;;;;;;;3.22;100.00;100203.28;5051338;28;20012;-73
2023/03/01 01:46:44;;;;;;;;;;;;;;;4.08;100.00;100168.03;5049813;28;20482;-73
2023/03/01 01:49:16;;;;;;;;;;;;;;;3.51;100.00;100167.22;5052075;28;19963;-73
2023/03/01 01:51:42;;;;;;;;;;;;;;;3.81;100.00;100160.88;5053365;28;20884;-73
2023/03/01 01:54:09;;;;;;;;;;;;;;;3.96;100.00;100161.94;5051121;28;19929;-73
2023/03/01 01:56:34;;;;;;;;;;;;;;;4.40;100.00;100137.81;5048088;28;19925;-73
2023/03/01 01:58:59;;;;;;;;;;;;;;;4.07;100.00;100134.06;5049130;28;19923;-73
2023/03/01 02:01:24;;;;;;;;;;;;;;;3.82;100.00;100137.97;5047634;28;19916;-73
2023/03/01 02:03:50;;;;;;;;;;;;;;;4.24;100.00;100135.94;5050579;28;20003;-73
2023/03/01 02:06:29;;;;;;;;;;;;;;;4.53;100.00;100114.16;5052342;28;19930;-73
2023/03/01 02:08:55;;;;;;;;;;;;;;;4.41;100.00;100114.06;5049190;28;19952;-73
2023/03/01 02:11:20;;;;;;;;;;;;;;;3.72;100.00;100126.81;5046283;28;20013;-73
2023/03/01 02:13:46;;;;;;;;;;;;;;;4.00;100.00;100137.38;5031210;28;19920;-73
2023/03/01 02:16:11;;;;;;;;;;;;;;;4.10;100.00;100133.22;5049212;28;19920;-73
2023/03/01 02:18:37;;;;;;;;;;;;;;;4.06;100.00;100132.34;5047625;28;19913;-73
2023/03/01 02:21:12;;;;;;;;;;;;;;;3.54;100.00;100142.69;5050198;28;19920;-73
2023/03/01 02:23:38;;;;;;;;;;;;;;;3.64;100.00;100141.13;5051011;28;19920;-73
2023/03/01 02:26:08;;;;;;;;;;;;;;;3.65;100.00;100145.41;5048649;28;20349;-73
2023/03/01 02:28:34;;;;;;;;;;;;;;;3.48;100.00;100149.38;5047432;28;19928;-73
2023/03/01 02:33:43;;;;;;;;;;;;;;;2.97;100.00;100180.78;5051286;28;19936;-73
2023/03/01 02:36:11;;;;;;;;;;;;;;;3.14;100.00;100181.91;5051984;28;19924;-73
2023/03/01 02:38:36;;;;;;;;;;;;;;;3.37;100.00;100168.72;5049935;28;20367;-73
2023/03/01 02:41:02;;;;;;;;;;;;;;;3.68;100.00;100155.63;5048865;28;19924;-73
2023/03/01 02:43:27;;;;;;;;;;;;;;;3.53;100.00;100150.28;5047214;28;19992;-73
2023/03/01 02:45:53;;;;;;;;;;;;;;;3.24;100.00;100137.97;5049667;28;19989;-74
2023/03/01 02:48:18;;;;;;;;;;;;;;;3.93;100.00;100131.31;5051303;28;19917;-73
2023/03/01 02:51:04;;;;;;;;;;;;;;;3.27;100.00;100137.16;5049279;28;20636;-73
2023/03/01 02:53:41;;;;;;;;;;;;;;;3.91;100.00;100116.84;5049610;28;19924;-73
2023/03/01 02:56:12;;;;;;;;;;;;;;;3.90;100.00;100110.91;5049548;28;19916;-73
2023/03/01 02:58:44;;;;;;;;;;;;;;;3.89;100.00;100105.78;5048252;28;19975;-73
2023/03/01 03:01:10;;;;;;;;;;;;;;;3.64;100.00;100105.44;5052321;28;20468;-73
2023/03/01 03:03:35;;;;;;;;;;;;;;;2.28;100.00;100162.50;5051374;28;19916;-73
2023/03/01 03:06:00;;;;;;;;;;;;;;;2.14;100.00;100182.56;5048153;28;20408;-73
2023/03/01 03:08:25;;;;;;;;;;;;;;;1.77;100.00;100181.75;5053036;28;19994;-73
2023/03/01 03:10:51;;;;;;;;;;;;;;;2.24;100.00;100183.63;5033210;28;20593;-73
2023/03/01 03:13:16;;;;;;;;;;;;;;;3.16;100.00;100159.91;5050960;28;20405;-73
2023/03/01 03:15:42;;;;;;;;;;;;;;;3.45;100.00;100134.91;5049923;28;19923;-73
2023/03/01 03:18:09;;;;;;;;;;;;;;;3.25;100.00;100119.31;5053040;28;19921;-73
2023/03/01 03:20:34;;;;;;;;;;;;;;;2.22;100.00;100149.69;5045357;28;19913;-73
2023/03/01 03:22:59;;;;;;;;;;;;;;;1.78;100.00;100172.44;5054919;28;19990;-73
2023/03/01 03:25:25;;;;;;;;;;;;;;;2.37;100.00;100170.31;5052319;28;20890;-73
2023/03/01 03:27:56;;;;;;;;;;;;;;;2.05;100.00;100162.91;5046512;28;19924;-73
2023/03/01 03:30:22;;;;;;;;;;;;;;;1.66;100.00;100173.88;5049474;28;20253;-73
2023/03/01 03:32:52;;;;;;;;;;;;;;;1.90;100.00;100177.81;5049659;28;19923;-73
2023/03/01 03:35:17;;;;;;;;;;;;;;;2.89;100.00;100156.03;5050343;28;19971;-74
2023/03/01 03:38:01;;;;;;;;;;;;;;;3.23;100.00;100123.53;5048467;28;20849;-73
2023/03/01 03:40:26;;;;;;;;;;;;;;;3.35;100.00;100105.03;5046432;28;19918;-74
2023/03/01 03:42:52;;;;;;;;;;;;;;;3.24;100.00;100093.81;5050552;28;19921;-73
2023/03/01 03:45:17;;;;;;;;;;;;;;;3.03;100.00;100087.56;5049602;28;19921;-73
2023/03/01 03:47:42;;;;;;;;;;;;;;;2.80;100.00;100097.38;5046436;28;20218;-73
2023/03/01 03:50:08;;;;;;;;;;;;;;;2.96;100.00;100090.84;5048267;28;19932;-73
2023/03/01 03:52:34;;;;;;;;;;;;;;;3.00;100.00;100086.69;5049904;28;19921;-73
2023/03/01 03:54:59;;;;;;;;;;;;;;;3.21;100.00;100087.00;5047011;28;19927;-73
2023/03/01 03:57:24;;;;;;;;;;;;;;;3.26;100.00;100070.13;5049677;28;19917;-73
2023/03/01 03:59:49;;;;;;;;;;;;;;;3.01;100.00;100078.19;5050504;28;19999;-73
2023/03/01 04:02:21;;;;;;;;;;;;;;;2.49;100.00;100090.91;5051981;28;20003;-73
2023/03/01 04:04:49;;;;;;;;;;;;;;;1.59;100.00;100150.88;5049877;28;19920;-73
2023/03/01 04:07:14;;;;;;;;;;;;;;;2.12;100.00;100158.78;5053608;28;19924;-73
2023/03/01 04:09:42;;;;;;;;;;;;;;;2.30;100.00;100140.53;5052015;28;20615;-73
2023/03/01 04:12:07;;;;;;;;;;;;;;;2.39;100.00;100117.81;5051548;28;19921;-73
2023/03/01 04:14:33;;;;;;;;;;;;;;;0.98;100.00;100147.72;5049677;28;19924;-73
2023/03/01 04:16:58;;;;;;;;;;;;;;;2.03;100.00;100154.41;5051968;28;19950;-73
2023/03/01 04:19:23;;;;;;;;;;;;;;;1.59;100.00;100166.13;5049324;28;19916;-73
2023/03/01 04:21:48;;;;;;;;;;;;;;;2.75;100.00;100131.19;5049337;28;19947;-73
2023/03/01 04:24:14;;;;;;;;;;;;;;;2.88;100.00;100110.25;5047973;28;19923;-73
2023/03/01 04:26:39;;;;;;;;;;;;;;;3.11;100.00;100100.44;5050846;28;19928;-73
2023/03/01 04:29:04;;;;;;;;;;;;;;;2.96;100.00;100092.53;5051771;28;19920;-73
2023/03/01 04:31:29;;;;;;;;;;;;;;;2.16;100.00;100116.53;5051245;28;19966;-73
2023/03/01 04:33:55;;;;;;;;;;;;;;;0.67;100.00;100138.50;5052290;28;19968;-73
2023/03/01 04:36:22;;;;;;;;;;;;;;;0.46;100.00;100175.13;5050509;28;19920;-73
2023/03/01 04:38:47;;;;;;;;;;;;;;;0.94;100.00;100173.84;5050788;28;19916;-73
2023/03/01 04:41:12;;;;;;;;;;;;;;;1.29;100.00;100163.72;5052895;28;19974;-73
2023/03/01 04:43:38;;;;;;;;;;;;;;;1.59;100.00;100156.81;5052269;28;19960;-73
2023/03/01 04:46:05;;;;;;;;;;;;;;;1.94;100.00;100159.28;5051763;28;19931;-74
2023/03/01 04:48:31;;;;;;;;;;;;;;;1.48;100.00;100148.09;5052686;28;19916;-73
2023/03/01 04:50:57;;;;;;;;;;;;;;;1.56;100.00;100156.75;5053794;28;19916;-74
2023/03/01 04:53:23;;;;;;;;;;;;;;;1.52;100.00;100154.09;5051629;28;20356;-74
2023/03/01 04:55:48;;;;;;;;;;;;;;;0.96;100.00;100157.00;5049785;28;19950;-75
2023/03/01 04:58:13;;;;;;;;;;;;;;;1.11;100.00;100172.59;5051281;28;20043;-74
2023/03/01 05:00:38;;;;;;;;;;;;;;;0.88;100.00;100163.53;5051981;28;19952;-74
2023/03/01 05:03:03;;;;;;;;;;;;;;;1.04;100.00;100174.09;5054450;28;19971;-74
2023/03/01 05:05:32;;;;;;;;;;;;;;;0.60;100.00;100175.50;5054842;28;19952;-77
2023/03/01 05:07:59;;;;;;;;;;;;;;;1.03;100.00;100174.09;5051676;28;20407;-75
2023/03/01 05:10:24;;;;;;;;;;;;;;;0.30;100.00;100178.91;5058402;28;19923;-77
2023/03/01 05:12:51;;;;;;;;;;;;;;;0.07;100.00;100162.16;5058750;28;19921;-75
2023/03/01 05:15:17;;;;;;;;;;;;;;;0.59;100.00;100156.91;5051709;28;19920;-75
2023/03/01 05:17:42;;;;;;;;;;;;;;;1.17;100.00;100160.06;5049119;28;19923;-75
2023/03/01 05:20:08;;;;;;;;;;;;;;;1.16;100.00;100145.63;5054568;28;20512;-74
2023/03/01 05:22:34;;;;;;;;;;;;;;;1.33;100.00;100147.75;5040667;28;19924;-74
2023/03/01 05:24:59;;;;;;;;;;;;;;;0.68;100.00;100140.19;5052397;28;19924;-74
2023/03/01 05:27:24;;;;;;;;;;;;;;;0.79;100.00;100149.78;5053268;28;20561;-74
2023/03/01 05:29:49;;;;;;;;;;;;;;;0.52;100.00;100149.06;5053316;28;20341;-74
2023/03/01 05:32:15;;;;;;;;;;;;;;;0.08;100.00;100157.16;5050635;28;19912;-74
2023/03/01 05:34:40;;;;;;;;;;;;;;;0.87;100.00;100159.28;5048672;28;20007;-73
2023/03/01 05:37:07;;;;;;;;;;;;;;;1.03;100.00;100148.72;5048651;28;19917;-74
2023/03/01 05:39:32;;;;;;;;;;;;;;;1.09;100.00;100151.38;5049212;28;19913;-74
2023/03/01 05:41:58;;;;;;;;;;;;;;;1.51;100.00;100132.94;5048904;28;20012;-75
2023/03/01 05:44:24;;;;;;;;;;;;;;;1.88;100.00;100121.06;5052354;28;19958;-73
2023/03/01 05:46:49;;;;;;;;;;;;;;;2.44;100.00;100101.00;5049488;28;20004;-74
2023/03/01 05:49:14;;;;;;;;;;;;;;;2.27;100.00;100093.03;5052936;28;19923;-74
2023/03/01 05:51:41;;;;;;;;;;;;;;;1.36;100.00;100107.19;5048159;28;20011;-74
2023/03/01 05:54:06;;;;;;;;;;;;;;;1.09;100.00;100128.56;5050469;28;19928;-75
2023/03/01 05:56:32;;;;;;;;;;;;;;;1.35;100.00;100129.19;5048420;28;19917;-74
2023/03/01 05:58:58;;;;;;;;;;;;;;;0.61;100.00;100134.97;5050038;28;19913;-74
2023/03/01 06:01:23;;;;;;;;;;;;;;;1.11;100.00;100129.47;5051600;28;19951;-74
2023/03/01 06:03:48;;;;;;;;;;;;;;;0.28;100.00;100139.13;5049339;28;19971;-74
2023/03/01 06:06:13;;;;;;;;;;;;;;;0.97;100.00;100151.94;5049937;28;19944;-74
2023/03/01 06:08:38;;;;;;;;;;;;;;;0.39;100.00;100143.69;5054810;28;19917;-74
2023/03/01 06:11:05;;;;;;;;;;;;;;;0.85;100.00;100158.41;5048959;28;19924;-74
2023/03/01 06:13:30;;;;;;;;;;;;;;;1.15;100.00;100140.56;5051131;28;19956;-74
2023/03/01 06:15:55;;;;;;;;;;;;;;;1.10;100.00;100152.28;5046187;28;19967;-74
2023/03/01 06:18:20;;;;;;;;;;;;;;;1.91;100.00;100133.81;5053711;28;19924;-73
2023/03/01 06:20:51;;;;;;;;;;;;;;;2.12;100.00;100124.91;5048933;28;19923;-74
2023/03/01 06:23:17;;;;;;;;;;;;;;;1.19;100.00;100115.28;5051443;28;20965;-74
2023/03/01 06:25:42;;;;;;;;;;;;;;;0.08;100.00;100136.88;5047795;28;20003;-73
2023/03/01 06:28:07;;;;;;;;;;;;;;;0.41;100.00;100147.13;5048956;28;20016;-73
2023/03/01 06:30:32;;;;;;;;;;;;;;;1.02;100.00;100144.44;5047136;28;20015;-74
2023/03/01 06:33:01;;;;;;;;;;;;;;;0.96;100.00;100146.84;5047665;28;19956;-74
2023/03/01 06:35:29;;;;;;;;;;;;;;;1.45;100.00;100135.34;5049443;28;19954;-74
2023/03/01 06:37:54;;;;;;;;;;;;;;;1.00;100.00;100141.91;5031723;28;19924;-74
2023/03/01 06:40:21;;;;;;;;;;;;;;;1.45;100.00;100133.66;5047493;28;20485;-74
2023/03/01 06:42:48;;;;;;;;;;;;;;;0.35;100.00;100146.09;5052037;28;19921;-74
2023/03/01 06:45:14;;;;;;;;;;;;;;;2.17;100.00;100129.28;5053353;28;20020;-74
2023/03/01 06:47:39;;;;;;;;;;;;;;;2.30;100.00;100104.94;5048871;28;20019;-74
2023/03/01 06:50:04;;;;;;;;;;;;;;;2.40;100.00;100089.03;5053322;28;19926;-73
2023/03/01 06:52:29;;;;;;;;;;;;;;;1.35;100.00;100110.59;5049781;28;19916;-74
2023/03/01 06:54:55;;;;;;;;;;;;;;;1.80;100.00;100114.94;5049610;28;20347;-73
2023/03/01 06:57:20;;;;;;;;;;;;;;;0.93;100.00;100121.41;5050532;28;20296;-73
2023/03/01 06:59:46;;;;;;;;;;;;;;;1.16;100.00;100132.94;5049913;28;20363;-73
2023/03/01 07:02:12;;;;;;;;;;;;;;;1.38;100.00;100134.34;5051427;28;20368;-73
2023/03/01 07:04:37;;;;;;;;;;;;;;;1.09;100.00;100138.69;5047764;28;19936;-74
2023/03/01 07:07:02;;;;;;;;;;;;;;;1.52;100.00;100132.09;5049519;28;20258;-74
2023/03/01 07:09:27;;;;;;;;;;;;;;;1.42;100.00;100137.81;5050281;28;19966;-73
2023/03/01 07:11:53;;;;;;;;;;;;;;;0.87;100.00;100141.53;5049548;28;19920;-73
2023/03/01 07:14:19;;;;;;;;;;;;;;;1.73;100.00;100138.50;5044994;28;19921;-72
2023/03/01 07:16:44;;;;;;;;;;;;;;;1.98;100.00;100127.16;5053231;28;19920;-73
2023/03/01 07:19:10;;;;;;;;;;;;;;;2.14;100.00;100116.50;5047722;28;19924;-73
2023/03/01 07:21:35;;;;;;;;;;;;;;;3.06;100.00;100107.16;5029006;28;19925;-74
2023/03/01 07:24:00;;;;;;;;;;;;;;;2.43;100.00;100094.19;5045184;28;19995;-73
2023/03/01 07:26:25;;;;;;;;;;;;;;;3.20;100.00;100080.22;5054035;28;19920;-73
2023/03/01 07:28:51;;;;;;;;;;;;;;;3.97;100.00;100056.63;5051966;28;19955;-74
2023/03/01 07:31:16;;;;;;;;;;;;;;;3.42;100.00;100062.69;5047467;28;19928;-73
2023/03/01 07:33:41;;;;;;;;;;;;;;;3.47;100.00;100058.53;5050077;28;19921;-73
2023/03/01 07:36:06;;;;;;;;;;;;;;;4.14;100.00;100038.97;5046115;28;19928;-73
2023/03/01 07:38:32;;;;;;;;;;;;;;;4.74;100.00;100018.25;5048859;28;19978;-73
2023/03/01 07:41:01;;;;;;;;;;;;;;;4.72;100.00;100018.28;5049441;28;20122;-72
2023/03/01 07:43:27;;;;;;;;;;;;;;;4.08;100.00;100007.44;5051031;28;19920;-73
2023/03/01 07:45:52;;;;;;;;;;;;;;;4.09;100.00;100022.78;5051794;28;20286;-73
2023/03/01 07:48:17;;;;;;;;;;;;;;;4.24;100.00;100028.84;5049436;28;19913;-72
2023/03/01 07:50:43;;;;;;;;;;;;;;;4.29;100.00;100029.75;5048020;28;20375;-73
2023/03/01 07:53:08;;;;;;;;;;;;;;;4.71;100.00;100016.53;5054629;28;20593;-73
2023/03/01 07:55:33;;;;;;;;;;;;;;;4.51;100.00;100024.00;5054189;28;20066;-72
2023/03/01 07:57:59;;;;;;;;;;;;;;;5.23;100.00;99995.63;5050498;28;19947;-73
2023/03/01 08:00:24;;;;;;;;;;;;;;;5.31;100.00;99993.97;5050758;28;20089;-74
2023/03/01 08:02:49;;;;;;;;;;;;;;;6.24;100.00;99970.44;5050925;28;19956;-73
2023/03/01 08:05:14;;;;;;;;;;;;;;;5.57;100.00;99986.44;5051307;28;20302;-73
2023/03/01 08:07:40;;;;;;;;;;;;;;;5.15;100.00;99987.06;5056680;28;20405;-73
2023/03/01 08:10:05;;;;;;;;;;;;;;;5.16;100.00;99996.44;5056538;28;20543;-73
2023/03/01 08:12:31;;;;;;;;;;;;;;;4.39;100.00;99986.50;5055307;28;19924;-73
2023/03/01 08:14:56;;;;;;;;;;;;;;;5.78;100.00;99990.75;5053209;28;19917;-73
2023/03/01 08:17:22;;;;;;;;;;;;;;;5.94;100.00;99955.91;5051658;28;19998;-73
2023/03/01 08:19:47;;;;;;;;;;;;;;;4.27;100.00;99980.47;5049882;28;19966;-73
2023/03/01 08:22:12;;;;;;;;;;;;;;;3.82;100.00;99999.53;5050402;28;20458;-73
2023/03/01 08:24:37;;;;;;;;;;;;;;;3.68;100.00;100023.16;5057278;28;20006;-73
2023/03/01 08:27:03;;;;;;;;;;;;;;;5.06;100.00;100012.53;5057822;28;19963;-73
2023/03/01 08:29:29;;;;;;;;;;;;;;;4.12;100.00;99988.81;5057520;28;20291;-73
2023/03/01 08:31:55;;;;;;;;;;;;;;;3.55;100.00;100017.03;5058589;28;19995;-73
2023/03/01 08:34:20;;;;;;;;;;;;;;;3.69;100.00;100014.66;5053122;28;19971;-73
2023/03/01 08:36:46;;;;;;;;;;;;;;;4.63;100.00;100002.00;5049096;28;19936;-73
2023/03/01 08:39:12;;;;;;;;;;;;;;;4.87;100.00;100002.19;5052537;28;19947;-73
2023/03/01 08:41:38;;;;;;;;;;;;;;;5.24;100.00;99987.09;5047655;28;19917;-73
2023/03/01 08:44:04;;;;;;;;;;;;;;;4.94;100.00;99982.69;5055694;28;19920;-73
2023/03/01 08:46:34;;;;;;;;;;;;;;;4.37;100.00;100000.09;5057381;28;19952;-73
2023/03/01 08:48:59;;;;;;;;;;;;;;;4.49;100.00;100005.28;5052844;28;19913;-73
2023/03/01 08:51:25;;;;;;;;;;;;;;;4.47;100.00;100019.75;5055767;28;19966;-73
2023/03/01 08:53:50;;;;;;;;;;;;;;;3.85;100.00;100037.78;5052939;28;19917;-73
2023/03/01 08:56:15;;;;;;;;;;;;;;;5.84;100.00;100031.69;5050886;28;19917;-73
2023/03/01 08:58:43;;;;;;;;;;;;;;;5.62;100.00;100004.34;5059039;28;19931;-74
2023/03/01 09:01:09;;;;;;;;;;;;;;;4.60;100.00;100003.69;5048573;28;20452;-73
2023/03/01 09:03:34;;;;;;;;;;;;;;;5.52;100.00;100008.56;5054947;28;20348;-73
2023/03/01 09:06:01;;;;;;;;;;;;;;;6.17;100.00;99986.63;5048687;28;19917;-74
2023/03/01 09:08:26;;;;;;;;;;;;;;;6.25;100.00;99982.41;5047849;28;19943;-73
2023/03/01 09:10:51;;;;;;;;;;;;;;;5.34;100.00;99983.78;5051331;28;19916;-73
2023/03/01 09:13:16;;;;;;;;;;;;;;;5.35;100.00;99992.28;5049998;28;19959;-73
2023/03/01 09:15:42;;;;;;;;;;;;;;;5.78;100.00;99990.75;5057557;28;20003;-73
2023/03/01 09:18:07;;;;;;;;;;;;;;;5.03;100.00;100003.16;5053237;28;20011;-73
2023/03/01 09:20:32;;;;;;;;;;;;;;;5.00;100.00;100008.25;5054991;28;20011;-73
2023/03/01 09:22:58;;;;;;;;;;;;;;;6.53;100.00;99995.22;5053243;28;19935;-73
2023/03/01 09:25:23;;;;;;;;;;;;;;;5.38;100.00;99988.06;5051434;28;19953;-73
2023/03/01 09:27:52;;;;;;;;;;;;;;;5.20;100.00;99996.47;5052874;28;20007;-73
2023/03/01 09:30:17;;;;;;;;;;;;;;;5.95;100.00;99985.72;5046947;28;20494;-73
2023/03/01 09:32:44;;;;;;;;;;;;;;;5.39;100.00;99982.09;5057305;28;19999;-73
2023/03/01 09:35:10;;;;;;;;;;;;;;;5.65;100.00;99978.78;5050626;28;19925;-73
2023/03/01 09:37:35;;;;;;;;;;;;;;;5.74;100.00;99963.47;5052253;28;20022;-73
2023/03/01 09:40:01;;;;;;;;;;;;;;;6.91;100.00;99953.34;5055471;28;19920;-73
2023/03/01 09:42:27;;;;;;;;;;;;;;;5.65;100.00;99940.44;5047990;28;19916;-73
2023/03/01 09:44:57;;;;;;;;;;;;;;;6.62;100.00;99933.78;5056936;28;19985;-73
2023/03/01 09:47:26;;;;;;;;;;;;;;;8.09;100.00;99918.66;5054343;28;19920;-73
2023/03/01 09:50:03;;;;;;;;;;;;;;;8.70;100.00;99895.06;5046702;28;19951;-73
2023/03/01 09:52:38;;;;;;;;;;;;;;;7.56;100.00;99896.78;5052722;28;19960;-73
2023/03/01 09:55:08;;;;;;;;;;;;;;;7.37;100.00;99896.88;5059463;28;19930;-72
2023/03/01 09:58:08;;;;;;;;;;;;;;;7.27;100.00;99882.38;5047609;28;19916;-73
2023/03/01 10:00:38;;;;;;;;;;;;;;;8.38;100.00;99875.66;5008325;28;20052;-72
2023/03/01 10:03:22;;;;;;;;;;;;;;;7.80;100.00;99876.13;5044168;28;20548;-72
2023/03/01 10:05:51;;;;;;;;;;;;;;;7.82;100.00;99876.94;5051837;28;20350;-72
2023/03/01 10:08:16;;;;;;;;;;;;;;;5.80;100.00;99891.94;5053560;28;19952;-72
2023/03/01 10:10:43;;;;;;;;;;;;;;;5.55;100.00;99896.16;5053844;28;19951;-72
2023/03/01 10:13:19;;;;;;;;;;;;;;;7.33;100.00;99895.19;5056160;28;19923;-72
2023/03/01 10:15:55;;;;;;;;;;;;;;;7.49;99.87;99860.91;5048580;28;20322;-72
2023/03/01 10:18:21;;;;;;;;;;;;;;;8.73;98.43;99850.53;5053555;28;19917;-72
2023/03/01 10:20:48;;;;;;;;;;;;;;;7.57;95.40;99831.81;5050603;28;19995;-71
2023/03/01 10:23:14;;;;;;;;;;;;;;;8.16;97.29;99849.34;5049128;28;19916;-71
2023/03/01 10:25:44;;;;;;;;;;;;;;;7.07;95.37;99834.66;5051540;28;19943;-71
2023/03/01 10:28:12;;;;;;;;;;;;;;;5.78;98.62;99865.53;5036401;28;19920;-71
2023/03/01 10:30:43;;;;;;;;;;;;;;;7.29;98.09;99849.94;5048459;28;20458;-71
2023/03/01 10:33:14;;;;;;;;;;;;;;;8.63;97.80;99842.06;5052369;28;19955;-71
2023/03/01 10:35:41;;;;;;;;;;;;;;;7.78;99.29;99852.22;5048385;28;19920;-71
2023/03/01 10:38:10;;;;;;;;;;;;;;;9.00;95.75;99823.69;5049822;28;19921;-71
2023/03/01 10:40:36;;;;;;;;;;;;;;;9.57;94.69;99816.03;5051015;28;20430;-71
2023/03/01 10:43:05;;;;;;;;;;;;;;;6.49;92.90;99837.41;5049117;28;19923;-72
2023/03/01 10:45:37;;;;;;;;;;;;;;;6.86;96.31;99852.66;5048807;28;19917;-71
2023/03/01 10:48:06;;;;;;;;;;;;;;;6.62;96.97;99851.03;5051691;28;19954;-71
2023/03/01 10:50:31;;;;;;;;;;;;;;;7.91;99.34;99852.94;5048882;28;19978;-71
2023/03/01 10:52:58;;;;;;;;;;;;;;;6.66;96.32;99834.78;5053797;28;19913;-71
2023/03/01 10:55:25;;;;;;;;;;;;;;;7.34;96.00;99822.56;5050243;28;20008;-71
2023/03/01 10:57:50;;;;;;;;;;;;;;;8.16;95.26;99818.56;5031304;28;19982;-71
2023/03/01 11:00:18;;;;;;;;;;;;;;;8.34;93.85;99801.28;5047983;28;19928;-71
2023/03/01 11:02:46;;;;;;;;;;;;;;;8.37;92.63;99807.22;5051410;28;19924;-72
2023/03/01 11:05:19;;;;;;;;;;;;;;;8.71;92.74;99801.78;5050382;28;20355;-72
2023/03/01 11:07:48;;;;;;;;;;;;;;;7.51;91.22;99797.69;5050501;28;20542;-72
2023/03/01 11:10:16;;;;;;;;;;;;;;;7.49;92.28;99813.94;5055680;28;19916;-71
2023/03/01 11:12:41;;;;;;;;;;;;;;;6.60;92.75;99820.31;5052988;28;19921;-71
2023/03/01 11:15:08;;;;;;;;;;;;;;;7.95;94.47;99811.88;5048396;28;19937;-71
2023/03/01 11:17:38;;;;;;;;;;;;;;;6.85;93.12;99810.00;5050325;28;19920;-71
2023/03/01 11:20:13;;;;;;;;;;;;;;;8.41;93.00;99802.09;5046292;28;21106;-71
2023/03/01 11:22:52;;;;;;;;;;;;;;;8.32;91.74;99792.72;5047312;28;20001;-71
2023/03/01 11:25:17;;;;;;;;;;;;;;;8.85;91.06;99782.75;5049524;28;19978;-71
2023/03/01 11:27:43;;;;;;;;;;;;;;;7.19;89.77;99784.25;5033732;28;19920;-71
2023/03/01 11:30:29;;;;;;;;;;;;;;;8.33;91.72;99791.88;5046513;28;19913;-71
2023/03/01 11:33:13;;;;;;;;;;;;;;;7.26;91.62;99799.56;5049493;28;19974;-71
2023/03/01 11:35:41;;;;;;;;;;;;;;;7.17;90.89;99791.06;5055876;28;19926;-71
2023/03/01 11:38:15;;;;;;;;;;;;;;;7.78;91.89;99795.78;5047152;28;19928;-71
2023/03/01 11:40:40;;;;;;;;;;;;;;;6.95;90.74;99791.16;5049700;28;20025;-71
2023/03/01 11:43:08;;;;;;;;;;;;;;;7.81;91.14;99790.63;5059381;28;19916;-71
2023/03/01 11:45:39;;;;;;;;;;;;;;;8.98;89.83;99768.88;5064782;28;20011;-71
2023/03/01 11:48:14;;;;;;;;;;;;;;;8.52;86.53;99760.03;5055856;28;20624;-71
2023/03/01 11:50:44;;;;;;;;;;;;;;;9.93;88.03;99762.31;5059597;28;19970;-71
2023/03/01 11:53:16;;;;;;;;;;;;;;;8.88;87.28;99762.19;5042141;28;19920;-71
2023/03/01 11:55:50;;;;;;;;;;;;;;;7.43;87.51;99778.94;5057287;28;19927;-71
2023/03/01 11:58:18;;;;;;;;;;;;;;;8.45;89.98;99783.22;5055345;28;20496;-71
2023/03/01 12:00:53;;;;;;;;;;;;;;;8.71;87.70;99762.38;5054764;28;19925;-71
2023/03/01 12:03:19;;;;;;;;;;;;;;;8.70;86.04;99746.13;5052909;28;19935;-71
2023/03/01 12:05:52;;;;;;;;;;;;;;;8.77;85.04;99747.75;5057477;28;19916;-71
2023/03/01 12:08:23;;;;;;;;;;;;;;;7.98;83.61;99731.47;5054028;28;19917;-71
2023/03/01 12:10:52;;;;;;;;;;;;;;;7.40;86.14;99758.47;5059169;28;19916;-71
2023/03/01 12:13:33;;;;;;;;;;;;;;;9.41;88.30;99755.44;5058495;28;19919;-71
2023/03/01 12:16:01;;;;;;;;;;;;;;;10.16;84.07;99712.16;5054046;28;19994;-71
2023/03/01 12:18:44;;;;;;;;;;;;;;;8.46;84.91;99734.47;5057877;28;20623;-71
2023/03/01 12:21:45;;;;;;;;;;;;;;;9.45;88.38;99758.81;5052866;28;20437;-72
2023/03/01 12:24:29;;;;;;;;;;;;;;;9.39;86.61;99739.19;4962005;28;19929;-71
2023/03/01 12:27:23;;;;;;;;;;;;;;;8.67;85.63;99743.63;5051698;28;19967;-71
2023/03/01 12:29:59;;;;;;;;;;;;;;;7.77;86.17;99747.94;4975541;28;19930;-72
2023/03/01 12:32:24;;;;;;;;;;;;;;;8.93;89.46;99750.13;5055637;28;19921;-72
2023/03/01 12:34:59;;;;;;;;;;;;;;;9.13;87.13;99732.72;5056072;28;20975;-72
2023/03/01 12:37:27;;;;;;;;;;;;;;;9.45;85.43;99710.81;5055515;28;19916;-72
2023/03/01 12:40:12;;;;;;;;;;;;;;;9.07;86.86;99727.66;5055187;28;19924;-72
2023/03/01 12:42:50;;;;;;;;;;;;;;;8.68;86.04;99723.91;5054055;28;19916;-72
2023/03/01 12:45:33;;;;;;;;;;;;;;;8.78;85.81;99722.91;5054033;28;19973;-72
2023/03/01 12:48:18;;;;;;;;;;;;;;;9.34;84.15;99710.13;5063069;28;19966;-72